Time;durP1;ratioP1;P1;durP2;ratioP2;P2;SDS_P1;SDS_P2;PMS_P1;PMS_P2;Temp;Humidity;BMP_temperature;BMP_pressure;BME280_temperature;BME280_humidity;BME280_pressure;Samples;Min_cycle;Max_cycle;Signal;HPM_P1;HPM_P2
2022/08/31 00:04:47;;;;;;;12.13;8.80;;;;;;;21.00;100.00;100043.05;1666172;84;21591;-55
2022/08/31 00:07:16;;;;;;;11.50;9.47;;;;;;;21.14;100.00;100033.59;1665891;86;21307;-55
2022/08/31 00:09:44;;;;;;;13.03;10.07;;;;;;;21.26;100.00;100033.37;1665583;86;20962;-54
2022/08/31 00:12:13;;;;;;;11.83;8.73;;;;;;;21.38;100.00;100032.66;1665465;86;21527;-55
2022/08/31 00:14:43;;;;;;;12.43;9.20;;;;;;;21.49;100.00;100026.33;1665413;86;21530;-55
2022/08/31 00:17:10;;;;;;;15.13;9.03;;;;;;;21.62;100.00;100019.19;1665431;86;21019;-65
2022/08/31 00:19:37;;;;;;;11.70;8.70;;;;;;;21.71;100.00;100017.38;1665480;85;21717;-54
2022/08/31 00:22:05;;;;;;;10.40;8.83;;;;;;;21.82;100.00;100010.99;1665787;86;21007;-63
2022/08/31 00:24:32;;;;;;;11.50;8.80;;;;;;;21.97;100.00;100011.55;1665326;86;20955;-56
2022/08/31 00:27:00;;;;;;;10.97;8.40;;;;;;;22.17;100.00;100011.61;1665923;86;20911;-54
2022/08/31 00:29:27;;;;;;;11.77;9.80;;;;;;;22.23;100.00;100017.16;1665684;86;20940;-56
2022/08/31 00:31:55;;;;;;;15.40;9.53;;;;;;;22.30;100.00;100007.61;1666062;86;21372;-54
2022/08/31 00:34:25;;;;;;;10.77;8.73;;;;;;;22.30;100.00;100012.92;1665712;86;21117;-55
2022/08/31 00:36:52;;;;;;;11.70;9.13;;;;;;;22.23;100.00;100011.06;1665848;86;21089;-55
2022/08/31 00:39:20;;;;;;;13.17;9.97;;;;;;;22.23;100.00;100010.52;1666247;86;20978;-55
2022/08/31 00:41:47;;;;;;;10.53;9.37;;;;;;;22.15;100.00;100012.92;1665383;86;20979;-65
2022/08/31 00:44:15;;;;;;;11.07;8.60;;;;;;;21.97;100.00;100013.70;1665374;86;21302;-55
2022/08/31 00:46:43;;;;;;;15.10;10.07;;;;;;;21.90;100.00;100014.48;1665977;86;21934;-55
2022/08/31 00:49:16;;;;;;;11.67;8.50;;;;;;;21.95;100.00;100008.38;1665917;85;21598;-54
2022/08/31 00:52:00;;;;;;;13.37;10.30;;;;;;;22.01;100.00;100006.80;1665696;84;21584;-62
2022/08/31 00:54:42;;;;;;;15.13;10.03;;;;;;;22.00;100.00;100011.81;1665998;85;20992;-55
2022/08/31 00:57:09;;;;;;;14.43;10.93;;;;;;;21.86;100.00;100010.77;1666215;86;21301;-64
2022/08/31 00:59:37;;;;;;;16.17;11.77;;;;;;;21.62;100.00;100015.20;1665325;86;22120;-54
2022/08/31 01:02:05;;;;;;;15.53;11.17;;;;;;;21.31;100.00;100018.80;1666105;86;21485;-55
2022/08/31 01:04:33;;;;;;;13.20;10.93;;;;;;;21.09;100.00;100026.39;1666403;84;20983;-54
2022/08/31 01:07:01;;;;;;;13.47;10.53;;;;;;;20.96;100.00;100030.05;1666463;85;20986;-60
2022/08/31 01:09:31;;;;;;;14.53;11.47;;;;;;;20.80;100.00;100035.80;1665621;86;22199;-55
2022/08/31 01:11:58;;;;;;;13.10;11.03;;;;;;;20.69;100.00;100034.13;1666929;86;20990;-54
2022/08/31 01:14:26;;;;;;;15.70;11.97;;;;;;;20.59;100.00;100036.97;1666780;86;21049;-55
2022/08/31 01:16:54;;;;;;;15.67;11.87;;;;;;;20.49;100.00;100042.67;1666508;86;21492;-55
2022/08/31 01:19:45;;;;;;;15.00;9.53;;;;;;;20.36;100.00;100042.06;1665542;86;21444;-58
2022/08/31 01:22:40;;;;;;;16.80;10.48;;;;;;;20.23;100.00;100046.47;1666644;86;21438;-55
2022/08/31 01:25:07;;;;;;;12.37;9.57;;;;;;;20.18;100.00;100044.55;1665463;85;21495;-56
2022/08/31 01:27:35;;;;;;;14.40;9.57;;;;;;;20.32;100.00;100038.33;1666357;86;20979;-55
2022/08/31 01:30:09;;;;;;;16.60;9.27;;;;;;;20.47;100.00;100047.44;1639750;86;20962;-55
2022/08/31 01:32:37;;;;;;;14.40;12.10;;;;;;;20.56;100.00;100052.03;1665829;86;21539;-56
2022/08/31 01:35:06;;;;;;;14.90;12.27;;;;;;;20.64;100.00;100048.91;1666350;86;21215;-55
2022/08/31 01:37:34;;;;;;;15.13;12.00;;;;;;;20.45;100.00;100045.56;1666659;86;21003;-55
2022/08/31 01:40:02;;;;;;;15.93;11.57;;;;;;;20.28;100.00;100050.47;1665608;86;20982;-57
2022/08/31 01:42:30;;;;;;;14.80;11.53;;;;;;;20.22;100.00;100046.70;1665106;86;21953;-58
2022/08/31 01:44:57;;;;;;;15.10;10.73;;;;;;;20.19;100.00;100047.99;1639119;86;21128;-55
2022/08/31 01:47:24;;;;;;;15.57;11.83;;;;;;;20.13;100.00;100053.78;1665826;86;21225;-56
2022/08/31 01:49:52;;;;;;;13.00;11.70;;;;;;;19.93;100.00;100054.92;1665712;86;20863;-54
2022/08/31 01:52:20;;;;;;;12.47;10.83;;;;;;;19.88;100.00;100054.31;1665624;86;21046;-63
2022/08/31 01:54:48;;;;;;;14.90;11.00;;;;;;;19.87;100.00;100057.22;1666137;86;21482;-54
2022/08/31 01:57:16;;;;;;;16.40;12.03;;;;;;;19.82;100.00;100062.47;1666470;84;20951;-54
2022/08/31 01:59:55;;;;;;;15.80;11.93;;;;;;;19.79;100.00;100059.00;1666416;85;21420;-55
2022/08/31 02:02:41;;;;;;;14.57;11.53;;;;;;;19.91;100.00;100066.26;1666306;85;21017;-57
2022/08/31 02:05:09;;;;;;;17.67;12.13;;;;;;;19.86;100.00;100064.89;1666157;84;21026;-54
2022/08/31 02:07:36;;;;;;;14.70;11.73;;;;;;;19.87;100.00;100061.19;1666388;86;20955;-54
2022/08/31 02:10:04;;;;;;;16.37;12.87;;;;;;;19.84;100.00;100060.36;1665914;86;21060;-63
2022/08/31 02:12:32;;;;;;;18.37;11.53;;;;;;;19.77;100.00;100059.23;1665858;86;21670;-54
2022/08/31 02:14:59;;;;;;;13.80;11.93;;;;;;;19.79;100.00;100062.97;1666342;86;21596;-56
2022/08/31 02:17:27;;;;;;;17.40;11.50;;;;;;;19.79;100.00;100060.32;1666059;85;21030;-54
2022/08/31 02:19:55;;;;;;;14.80;11.23;;;;;;;19.80;100.00;100065.88;1665589;86;20998;-55
2022/08/31 02:22:22;;;;;;;22.77;12.40;;;;;;;19.76;100.00;100063.45;1665860;86;21889;-64
2022/08/31 02:24:49;;;;;;;14.63;12.33;;;;;;;19.76;100.00;100066.09;1664925;86;21730;-55
2022/08/31 02:27:17;;;;;;;17.07;11.37;;;;;;;19.77;100.00;100059.75;1665825;86;21132;-55
2022/08/31 02:29:47;;;;;;;16.17;11.73;;;;;;;19.76;100.00;100054.98;1665755;86;20982;-63
2022/08/31 02:32:14;;;;;;;16.43;11.07;;;;;;;19.85;100.00;100059.30;1665565;86;21061;-54
2022/08/31 02:34:43;;;;;;;19.87;12.90;;;;;;;19.86;100.00;100057.75;1665353;86;21001;-56
2022/08/31 02:37:11;;;;;;;14.07;11.10;;;;;;;19.95;100.00;100064.71;1665628;85;21279;-54
2022/08/31 02:39:38;;;;;;;12.83;9.83;;;;;;;20.13;100.00;100060.92;1665468;86;20984;-55
2022/08/31 02:42:06;;;;;;;16.50;10.97;;;;;;;20.23;100.00;100061.52;1665176;86;21516;-56
2022/08/31 02:44:34;;;;;;;13.80;8.90;;;;;;;20.37;100.00;100066.68;1665763;86;21427;-54
2022/08/31 02:47:02;;;;;;;11.23;9.80;;;;;;;20.41;100.00;100070.42;1665148;86;21047;-54
2022/08/31 02:49:34;;;;;;;13.23;9.60;;;;;;;20.54;100.00;100063.95;1666019;85;21143;-55
2022/08/31 02:52:03;;;;;;;12.63;9.97;;;;;;;20.64;100.00;100064.80;1665310;86;21511;-56
2022/08/31 02:54:30;;;;;;;14.73;10.60;;;;;;;20.81;100.00;100058.58;1665404;86;21853;-62
2022/08/31 02:56:58;;;;;;;15.13;10.17;;;;;;;20.81;100.00;100062.55;1665417;86;21059;-55
2022/08/31 02:59:26;;;;;;;14.83;9.73;;;;;;;20.86;100.00;100065.22;1665933;86;21130;-55
2022/08/31 03:01:55;;;;;;;11.27;9.23;;;;;;;20.75;100.00;100068.85;1665244;86;21310;-55
2022/08/31 03:04:23;;;;;;;11.00;9.33;;;;;;;20.78;100.00;100073.12;1665132;84;21334;-54
2022/08/31 03:06:51;;;;;;;11.87;8.77;;;;;;;20.92;100.00;100069.51;1661391;86;21438;-58
2022/08/31 03:09:19;;;;;;;8.93;6.90;;;;;;;21.05;100.00;100070.89;1661527;86;21009;-54
2022/08/31 03:11:46;;;;;;;10.93;7.73;;;;;;;21.21;100.00;100067.80;1661386;86;21010;-57
2022/08/31 03:14:14;;;;;;;9.70;8.07;;;;;;;21.27;100.00;100064.91;1661490;86;21499;-54
2022/08/31 03:16:41;;;;;;;8.93;7.80;;;;;;;21.43;100.00;100075.09;1656647;85;21466;-59
2022/08/31 03:19:09;;;;;;;9.87;7.63;;;;;;;21.65;100.00;100075.44;1661366;86;21526;-55
2022/08/31 03:21:37;;;;;;;11.77;8.37;;;;;;;21.73;100.00;100073.60;1660904;86;21472;-62
2022/08/31 03:24:05;;;;;;;8.90;7.40;;;;;;;21.85;100.00;100072.83;1661016;86;20978;-54
2022/08/31 03:26:32;;;;;;;15.57;8.07;;;;;;;21.96;100.00;100068.34;1661552;86;21111;-61
2022/08/31 03:29:00;;;;;;;9.90;7.40;;;;;;;22.11;100.00;100064.39;1660951;86;21063;-55
2022/08/31 03:31:36;;;;;;;12.53;8.00;;;;;;;22.40;100.00;100059.39;1661083;86;20914;-54
2022/08/31 03:34:04;;;;;;;9.83;7.20;;;;;;;22.75;100.00;100062.55;1666826;85;21039;-54
2022/08/31 03:36:32;;;;;;;8.70;7.17;;;;;;;23.10;100.00;100062.77;1656465;86;21002;-64
2022/08/31 03:39:01;;;;;;;10.10;8.40;;;;;;;23.49;100.00;100058.38;1656435;86;21192;-54
2022/08/31 03:41:29;;;;;;;9.40;8.27;;;;;;;23.82;100.00;100057.41;1656205;86;21003;-55
2022/08/31 03:44:00;;;;;;;9.00;7.97;;;;;;;24.21;100.00;100059.30;1661481;86;21107;-54
2022/08/31 03:46:30;;;;;;;11.63;7.97;;;;;;;24.56;100.00;100056.89;1656984;86;21066;-55
2022/08/31 03:49:00;;;;;;;9.73;7.87;;;;;;;24.77;100.00;100053.48;1656027;86;21029;-64
2022/08/31 03:51:28;;;;;;;11.10;7.80;;;;;;;25.00;100.00;100058.05;1656875;86;21834;-56
2022/08/31 03:53:56;;;;;;;9.83;7.93;;;;;;;25.30;100.00;100056.66;1661574;86;21003;-55
2022/08/31 03:56:24;;;;;;;9.63;8.60;;;;;;;25.58;100.00;100050.98;1656937;86;21571;-54
2022/08/31 03:58:51;;;;;;;10.17;8.03;;;;;;;25.88;100.00;100051.91;1656788;86;21006;-57
2022/08/31 04:01:34;;;;;;;9.40;8.27;;;;;;;26.16;100.00;100046.12;1657616;85;21255;-55
2022/08/31 04:04:20;;;;;;;9.50;8.00;;;;;;;26.58;100.00;100047.05;1656698;86;21172;-65
2022/08/31 04:06:55;;;;;;;9.83;8.23;;;;;;;26.97;100.00;100045.01;1650220;86;21439;-54
2022/08/31 04:09:40;;;;;;;10.33;9.27;;;;;;;27.41;100.00;100047.88;1656993;86;20975;-54
2022/08/31 04:12:26;;;;;;;10.43;8.40;;;;;;;27.72;100.00;100043.19;1657328;85;21058;-56
2022/08/31 04:15:11;;;;;;;11.63;9.65;;;;;;;28.12;98.81;100040.70;1662499;84;20947;-54
2022/08/31 04:17:50;;;;;;;12.63;8.93;;;;;;;28.33;91.84;100035.05;1642519;86;21394;-55
2022/08/31 04:20:38;;;;;;;10.58;9.55;;;;;;;28.48;89.57;100036.58;1657291;86;21042;-55
2022/08/31 04:23:05;;;;;;;15.03;10.45;;;;;;;28.66;90.15;100033.44;1662277;85;21531;-58
2022/08/31 04:25:39;;;;;;;11.12;9.55;;;;;;;28.92;89.30;100030.07;1656730;86;21010;-55
2022/08/31 04:28:07;;;;;;;12.13;9.28;;;;;;;29.21;86.17;100031.69;1662507;84;21000;-57
2022/08/31 04:30:42;;;;;;;11.08;9.30;;;;;;;29.47;81.44;100033.59;1657206;86;21281;-55
2022/08/31 04:33:10;;;;;;;9.45;8.50;;;;;;;29.70;77.61;100025.67;1661587;86;21013;-59
2022/08/31 04:35:40;;;;;;;10.03;8.68;;;;;;;29.93;73.74;100029.50;1662182;86;21133;-55
2022/08/31 04:38:09;;;;;;;10.48;9.38;;;;;;;30.19;72.72;100032.19;1657441;86;21082;-56
2022/08/31 04:40:38;;;;;;;10.80;9.13;;;;;;;30.59;69.98;100033.27;1657468;86;21528;-56
2022/08/31 04:43:05;;;;;;;10.98;9.88;;;;;;;30.76;65.25;100028.64;1661420;86;21257;-60
2022/08/31 04:45:32;;;;;;;10.55;9.45;;;;;;;30.91;64.96;100038.08;1656133;86;21854;-55
2022/08/31 04:48:00;;;;;;;12.53;9.15;;;;;;;31.22;65.32;100043.11;1661532;86;21466;-55
2022/08/31 04:50:27;;;;;;;11.30;10.13;;;;;;;31.63;60.46;100046.16;1661307;86;21002;-56
2022/08/31 04:52:56;;;;;;;13.00;9.05;;;;;;;32.05;56.23;100040.75;1657216;85;20954;-66
2022/08/31 04:55:23;;;;;;;11.65;9.95;;;;;;;32.44;54.59;100036.16;1656036;86;22287;-57
2022/08/31 04:57:52;;;;;;;11.55;9.95;;;;;;;32.79;52.85;100037.65;1656658;86;22212;-55
2022/08/31 05:00:20;;;;;;;9.58;8.50;;;;;;;32.97;50.05;100034.20;1656744;86;20868;-56
2022/08/31 05:03:05;;;;;;;10.85;8.75;;;;;;;32.89;49.37;100037.98;1655737;86;21074;-58
2022/08/31 05:05:38;;;;;;;10.15;9.00;;;;;;;32.94;50.15;100039.70;1659290;86;21079;-56
2022/08/31 05:08:07;;;;;;;10.03;8.98;;;;;;;33.17;49.23;100040.80;1653077;86;21254;-55
2022/08/31 05:10:34;;;;;;;12.23;10.60;;;;;;;33.35;48.21;100036.49;1688580;84;21034;-63
2022/08/31 05:13:02;;;;;;;11.83;9.95;;;;;;;33.53;48.06;100037.83;1688909;84;21490;-55
2022/08/31 05:15:31;;;;;;;11.55;10.28;;;;;;;33.76;46.20;100032.67;1688286;84;21465;-56
2022/08/31 05:17:59;;;;;;;10.58;8.75;;;;;;;33.90;45.44;100033.61;1689219;84;21597;-55
2022/08/31 05:20:28;;;;;;;12.95;9.40;;;;;;;33.99;44.87;100031.58;1689070;84;21247;-55
2022/08/31 05:22:56;;;;;;;10.63;9.08;;;;;;;34.07;45.19;100031.98;1688207;84;20991;-55
2022/08/31 05:25:23;;;;;;;9.65;8.53;;;;;;;34.51;44.23;100038.73;1688385;84;21132;-62
2022/08/31 05:27:53;;;;;;;11.12;8.65;;;;;;;34.97;42.32;100028.77;1689048;84;21030;-56
2022/08/31 05:30:21;;;;;;;9.05;7.85;;;;;;;35.32;41.18;100036.91;1688832;84;21078;-57
2022/08/31 05:32:50;;;;;;;10.43;7.97;;;;;;;35.59;39.73;100032.45;1688018;84;21718;-56
2022/08/31 05:35:17;;;;;;;10.88;8.90;;;;;;;35.29;40.27;100034.33;1689098;84;22128;-59
2022/08/31 05:37:44;;;;;;;9.43;8.23;;;;;;;34.89;39.89;100036.49;1688390;84;21047;-56
2022/08/31 05:40:12;;;;;;;14.65;8.40;;;;;;;34.24;40.52;100040.33;1689059;84;21879;-55
2022/08/31 05:42:39;;;;;;;11.28;8.63;;;;;;;33.78;41.39;100049.89;1688926;84;21429;-57
2022/08/31 05:45:08;;;;;;;8.98;7.60;;;;;;;33.35;41.92;100041.33;1688841;84;21106;-57
2022/08/31 05:47:38;;;;;;;9.45;8.00;;;;;;;33.05;42.82;100046.78;1686033;84;20916;-56
2022/08/31 05:50:07;;;;;;;10.20;8.28;;;;;;;33.08;43.79;100045.55;1689062;84;21519;-55
2022/08/31 05:52:35;;;;;;;13.45;9.55;;;;;;;33.29;43.41;100048.08;1688718;84;20944;-55
2022/08/31 05:55:03;;;;;;;11.80;9.90;;;;;;;33.45;43.15;100035.22;1688869;84;21093;-55
2022/08/31 05:57:30;;;;;;;12.28;10.43;;;;;;;33.71;43.73;100036.17;1688612;84;21903;-60
2022/08/31 05:59:57;;;;;;;13.40;11.95;;;;;;;34.04;43.81;100025.12;1653138;86;21361;-55
2022/08/31 06:02:26;;;;;;;14.15;11.50;;;;;;;34.21;42.74;100026.70;1688749;84;20944;-62
2022/08/31 06:04:56;;;;;;;15.03;12.20;;;;;;;34.14;42.54;100032.17;1689167;84;21075;-56
2022/08/31 06:07:23;;;;;;;17.40;12.35;;;;;;;33.95;42.98;100035.30;1666246;85;21014;-57
2022/08/31 06:09:56;;;;;;;14.65;12.93;;;;;;;33.94;43.23;100038.55;1665954;85;21435;-56
2022/08/31 06:12:25;;;;;;;16.87;13.13;;;;;;;33.96;42.75;100039.00;1665334;86;21160;-59
2022/08/31 06:14:54;;;;;;;14.23;11.40;;;;;;;33.79;42.28;100033.88;1666064;86;21786;-56
2022/08/31 06:17:23;;;;;;;17.62;13.65;;;;;;;33.58;42.74;100028.69;1665859;86;21497;-62
2022/08/31 06:19:50;;;;;;;16.32;13.98;;;;;;;33.46;43.32;100026.81;1661120;86;21002;-55
2022/08/31 06:22:18;;;;;;;14.85;12.50;;;;;;;33.24;44.12;100020.53;1670189;85;21257;-65
2022/08/31 06:24:48;;;;;;;16.70;12.43;;;;;;;33.08;44.50;100015.05;1665624;85;21041;-56
2022/08/31 06:27:16;;;;;;;13.03;11.73;;;;;;;33.20;44.74;100022.34;1665752;86;21000;-61
2022/08/31 06:29:44;;;;;;;15.03;13.28;;;;;;;33.42;43.85;100017.79;1665386;86;21009;-56
2022/08/31 06:32:14;;;;;;;14.30;11.55;;;;;;;33.48;43.60;100016.44;1661340;85;21439;-61
2022/08/31 06:34:43;;;;;;;16.05;11.55;;;;;;;33.54;44.13;100015.07;1665465;85;21729;-56
2022/08/31 06:37:12;;;;;;;12.65;9.90;;;;;;;33.64;43.59;100006.48;1665564;85;21006;-55
2022/08/31 06:39:52;;;;;;;12.35;10.18;;;;;;;33.74;43.08;100009.81;1670822;84;21049;-56
2022/08/31 06:42:38;;;;;;;11.55;9.95;;;;;;;33.80;42.66;100007.88;1670623;85;21544;-57
2022/08/31 06:45:12;;;;;;;14.45;10.80;;;;;;;33.87;42.74;100008.06;1656893;86;20963;-65
2022/08/31 06:47:45;;;;;;;28.55;9.73;;;;;;;33.92;42.32;100007.02;1665049;86;21193;-56
2022/08/31 06:50:12;;;;;;;10.78;8.63;;;;;;;33.99;42.02;100011.30;1670933;85;21442;-55
2022/08/31 06:52:40;;;;;;;11.35;8.58;;;;;;;34.13;41.98;100008.97;1666093;86;21024;-56
2022/08/31 06:55:19;;;;;;;9.53;8.23;;;;;;;34.30;41.11;100017.88;1643575;86;21565;-66
2022/08/31 06:58:02;;;;;;;10.13;8.60;;;;;;;34.35;40.70;100006.20;1666138;86;21054;-55
2022/08/31 07:00:48;;;;;;;8.80;7.72;;;;;;;34.48;41.03;100008.27;1664989;86;21334;-57
2022/08/31 07:03:31;;;;;;;11.83;8.10;;;;;;;34.54;40.25;100003.40;1665493;86;21117;-56
2022/08/31 07:05:52;;;;;;;10.35;7.33;;;;;;;34.74;40.49;100002.34;1637711;85;21682;-56
2022/08/31 07:08:20;;;;;;;9.18;7.50;;;;;;;34.85;40.45;100000.66;1661945;83;21031;-56
2022/08/31 07:10:48;;;;;;;9.03;8.13;;;;;;;35.07;40.36;100003.84;1656308;86;21051;-60
2022/08/31 07:13:15;;;;;;;9.70;7.45;;;;;;;35.44;39.45;100009.66;1677117;84;21495;-56
2022/08/31 07:15:44;;;;;;;10.45;9.35;;;;;;;35.74;38.82;100007.17;1662126;86;21029;-57
2022/08/31 07:18:13;;;;;;;10.70;9.55;;;;;;;35.88;37.95;100006.66;1657424;86;20911;-56
2022/08/31 07:20:40;;;;;;;10.68;8.38;;;;;;;35.96;38.81;100013.78;1662549;86;21484;-66
2022/08/31 07:23:09;;;;;;;10.08;8.25;;;;;;;36.22;37.76;100009.03;1657017;86;21015;-58
2022/08/31 07:25:39;;;;;;;9.15;8.25;;;;;;;36.49;37.91;100016.67;1657212;85;21182;-56
2022/08/31 07:28:06;;;;;;;8.93;8.03;;;;;;;36.88;37.67;100015.69;1657167;86;21033;-58
2022/08/31 07:30:40;;;;;;;9.08;7.62;;;;;;;37.37;37.04;100010.73;1656943;86;21050;-56
2022/08/31 07:33:05;;;;;;;8.00;7.20;;;;;;;37.82;35.42;100009.70;1661391;84;22428;-56
2022/08/31 07:35:33;;;;;;;7.33;6.62;;;;;;;37.94;34.97;100008.09;1657373;85;21564;-56
2022/08/31 07:43:46;;;;;;;7.20;6.50;;;;;;;38.98;34.01;100005.39;1661946;86;20963;-65
2022/08/31 07:46:13;;;;;;;8.08;5.87;;;;;;;38.89;34.30;100003.80;1666179;85;21592;-60
2022/08/31 07:48:41;;;;;;;8.88;6.90;;;;;;;39.03;33.64;99998.23;1656557;86;21113;-56
2022/08/31 07:51:27;;;;;;;8.38;6.45;;;;;;;39.19;33.56;99980.97;1656335;86;21230;-64
2022/08/31 07:54:09;;;;;;;8.88;7.97;;;;;;;39.27;33.46;99982.58;1661555;84;20927;-56
2022/08/31 07:56:52;;;;;;;8.38;7.58;;;;;;;39.30;33.28;99979.09;1657928;85;21022;-56
2022/08/31 07:59:19;;;;;;;10.00;8.38;;;;;;;39.47;33.61;99982.25;1655365;86;20975;-57
2022/08/31 08:01:47;;;;;;;9.55;8.53;;;;;;;39.76;32.96;99978.44;1655889;86;21135;-65
2022/08/31 08:04:25;;;;;;;11.53;10.28;;;;;;;39.83;33.05;99981.19;1656540;86;21908;-56
2022/08/31 08:07:11;;;;;;;11.12;10.00;;;;;;;39.92;33.26;99975.33;1654867;85;21051;-55
2022/08/31 08:09:53;;;;;;;9.68;8.70;;;;;;;40.32;32.41;99974.19;1652053;86;21484;-56
2022/08/31 08:12:28;;;;;;;8.63;7.72;;;;;;;40.66;31.35;99976.50;1661972;86;21022;-64
2022/08/31 08:14:58;;;;;;;8.03;6.53;;;;;;;40.95;30.68;99966.23;1655081;86;21105;-56
2022/08/31 08:17:27;;;;;;;8.00;6.93;;;;;;;41.03;30.12;99967.83;1665074;86;21169;-57
2022/08/31 08:19:56;;;;;;;8.55;7.65;;;;;;;41.13;29.61;99962.09;1651516;86;21467;-56
2022/08/31 08:22:25;;;;;;;8.78;7.53;;;;;;;41.10;29.53;99956.05;1665060;85;21007;-58
2022/08/31 08:25:08;;;;;;;7.97;7.17;;;;;;;40.83;29.91;99953.02;1648233;86;21053;-57
2022/08/31 08:27:38;;;;;;;7.75;6.90;;;;;;;40.89;30.81;99943.84;1665566;85;21504;-58
2022/08/31 08:30:17;;;;;;;11.03;7.37;;;;;;;41.13;29.88;99944.33;1650590;86;21147;-56
2022/08/31 08:32:46;;;;;;;10.48;7.40;;;;;;;41.46;29.38;99943.59;1660917;86;21061;-56
2022/08/31 08:35:15;;;;;;;8.28;7.12;;;;;;;41.77;28.46;99944.54;1665744;85;21344;-64
2022/08/31 08:37:46;;;;;;;7.95;6.45;;;;;;;41.69;28.05;99946.55;1651398;86;21118;-58
2022/08/31 08:40:18;;;;;;;9.03;6.42;;;;;;;41.63;27.81;99950.11;1666046;86;21053;-56
2022/08/31 08:42:46;;;;;;;8.75;5.97;;;;;;;41.94;27.50;99942.30;1643814;86;21373;-55
2022/08/31 08:45:13;;;;;;;7.70;6.58;;;;;;;41.83;27.44;99945.70;1666220;86;20915;-58
2022/08/31 08:47:43;;;;;;;7.10;5.95;;;;;;;41.56;28.07;99945.46;1651466;86;21011;-57
2022/08/31 08:50:11;;;;;;;7.17;6.20;;;;;;;41.63;27.76;99941.91;1666911;86;21069;-56
2022/08/31 08:52:42;;;;;;;6.85;4.67;;;;;;;41.70;28.26;99937.16;1666242;86;21018;-56
2022/08/31 08:55:15;;;;;;;6.12;5.03;;;;;;;41.89;27.61;99934.49;1666508;86;21148;-56
2022/08/31 08:57:44;;;;;;;5.80;4.35;;;;;;;42.00;27.50;99939.87;1665766;86;20962;-58
2022/08/31 09:00:16;;;;;;;5.10;4.37;;;;;;;42.27;27.32;99936.70;1666546;86;21053;-58
2022/08/31 09:03:02;;;;;;;5.22;4.05;;;;;;;42.50;26.52;99941.55;1652293;86;21027;-56
2022/08/31 09:06:14;;;;;;;6.00;4.33;;;;;;;42.21;27.64;99942.44;1666784;85;21069;-56
2022/08/31 09:09:35;;;;;;;5.33;4.60;;;;;;;42.07;27.33;99938.45;1664147;86;21237;-58
2022/08/31 09:12:30;;;;;;;4.90;4.28;;;;;;;41.67;27.69;99939.32;1666632;86;20970;-56
2022/08/31 09:15:35;;;;;;;5.15;4.65;;;;;;;41.59;27.64;99941.16;1668037;85;20940;-57
2022/08/31 09:18:10;;;;;;;6.28;5.25;;;;;;;41.14;28.25;99948.61;1668452;83;21019;-56
2022/08/31 09:20:37;;;;;;;7.08;4.95;;;;;;;40.23;29.42;99947.85;1690197;84;21058;-55
2022/08/31 09:23:06;;;;;;;6.35;4.80;;;;;;;39.11;31.02;99939.85;1685767;84;21207;-57
2022/08/31 09:25:50;;;;;;;7.78;4.55;;;;;;;38.26;31.74;99938.16;1689198;84;21503;-56
2022/08/31 09:28:43;;;;;;;5.53;4.17;;;;;;;37.49;32.76;99944.66;1686025;84;21118;-58
2022/08/31 09:31:34;;;;;;;7.62;4.50;;;;;;;36.79;33.41;99933.12;1689415;84;21130;-55
2022/08/31 09:34:02;;;;;;;7.10;4.92;;;;;;;36.27;33.96;99930.02;1688724;84;21007;-65
2022/08/31 09:36:39;;;;;;;7.80;5.00;;;;;;;35.60;34.99;99926.91;1689451;84;22041;-55
2022/08/31 09:39:15;;;;;;;5.95;5.10;;;;;;;35.14;35.87;99917.88;1689105;84;20990;-57
2022/08/31 09:41:43;;;;;;;7.15;5.30;;;;;;;34.85;36.92;99914.55;1666536;86;20984;-64
2022/08/31 09:44:34;;;;;;;6.22;5.20;;;;;;;34.83;38.02;99915.48;1653399;86;21051;-55
2022/08/31 09:47:07;;;;;;;6.50;4.45;;;;;;;35.15;37.25;99916.73;1689820;84;20896;-55
2022/08/31 09:49:37;;;;;;;6.72;4.85;;;;;;;35.77;36.03;99912.13;1664351;84;21480;-56
2022/08/31 09:55:17;;;;;;;5.95;4.47;;;;;;;36.56;34.65;99909.30;1689436;84;21122;-55
2022/08/31 09:57:49;;;;;;;9.10;5.03;;;;;;;36.92;33.68;99905.12;1689509;84;20995;-55
2022/08/31 10:00:20;;;;;;;6.83;4.55;;;;;;;37.14;33.57;99906.20;1688963;84;21063;-55
2022/08/31 10:02:47;;;;;;;6.62;5.28;;;;;;;37.51;32.71;99914.39;1621375;84;21541;-60
2022/08/31 10:05:31;;;;;;;6.15;4.25;;;;;;;38.09;32.46;99914.33;1619627;84;21607;-55
2022/08/31 10:08:06;;;;;;;9.30;5.08;;;;;;;38.87;30.99;99907.23;1679080;84;20907;-58
2022/08/31 10:10:36;;;;;;;5.45;4.47;;;;;;;39.52;31.64;99916.42;1647733;85;21439;-57
2022/08/31 10:13:14;;;;;;;5.75;4.35;;;;;;;40.04;31.56;99922.30;1656675;85;24995;-55
2022/08/31 10:15:56;;;;;;;5.70;4.22;;;;;;;40.44;31.26;99921.10;1661767;86;21567;-56
2022/08/31 10:18:29;;;;;;;5.65;3.92;;;;;;;40.86;30.08;99915.33;1659014;86;22081;-57
2022/08/31 10:21:10;;;;;;;5.95;3.70;;;;;;;41.09;28.45;99918.95;1661633;86;21041;-57
2022/08/31 10:23:53;;;;;;;6.22;3.90;;;;;;;41.11;28.46;99916.62;1656072;86;21035;-57
2022/08/31 10:26:18;;;;;;;5.47;4.08;;;;;;;41.26;27.93;99919.46;1657187;85;21053;-57
2022/08/31 10:28:53;;;;;;;5.33;3.70;;;;;;;41.27;28.48;99918.27;1656839;86;21131;-56
2022/08/31 10:31:35;;;;;;;5.83;4.05;;;;;;;41.28;29.09;99926.66;1656424;86;20892;-64
2022/08/31 10:37:11;;;;;;;5.90;4.22;;;;;;;41.05;29.34;99927.77;1660844;86;20994;-57
2022/08/31 10:39:46;;;;;;;7.20;4.33;;;;;;;40.73;29.73;99925.16;1661830;86;21010;-56
2022/08/31 10:42:31;;;;;;;6.33;4.20;;;;;;;40.47;31.00;99924.42;1661870;85;21349;-56
2022/08/31 10:45:08;;;;;;;6.35;4.10;;;;;;;40.20;31.61;99924.09;1657245;86;21551;-56
2022/08/31 10:47:40;;;;;;;5.47;4.78;;;;;;;39.97;31.50;99923.10;1657007;85;21141;-56
2022/08/31 10:50:04;;;;;;;5.65;4.10;;;;;;;39.79;31.12;99915.50;1645093;86;20975;-57
2022/08/31 10:53:04;;;;;;;9.55;4.72;;;;;;;39.70;30.69;99915.86;1657004;86;21434;-56
2022/08/31 10:55:39;;;;;;;6.70;4.47;;;;;;;39.41;31.05;99910.36;1657738;86;21208;-55
2022/08/31 10:58:36;;;;;;;7.22;5.12;;;;;;;39.48;31.46;99900.64;1657283;86;20947;-58
2022/08/31 11:01:22;;;;;;;7.80;4.25;;;;;;;39.38;31.53;99897.49;1662417;86;21061;-56
2022/08/31 11:04:00;;;;;;;8.85;3.98;;;;;;;39.30;30.80;99897.88;1661637;86;21377;-55
2022/08/31 11:06:56;;;;;;;5.47;4.10;;;;;;;39.45;29.56;99901.41;1629160;86;21069;-56
2022/08/31 11:09:32;;;;;;;4.87;3.70;;;;;;;39.47;29.99;99888.15;1653309;85;21270;-56
2022/08/31 11:12:14;;;;;;;5.87;3.85;;;;;;;39.51;29.87;99888.93;1666295;85;21001;-57
2022/08/31 11:15:04;;;;;;;4.65;3.92;;;;;;;39.50;30.09;99893.61;1666002;86;22002;-55
2022/08/31 11:17:54;;;;;;;6.12;4.25;;;;;;;39.41;30.58;99896.72;1665968;86;20942;-56
2022/08/31 11:20:39;;;;;;;5.83;3.67;;;;;;;39.09;31.63;99895.24;1652338;86;21113;-58
2022/08/31 11:23:55;;;;;;;6.15;3.83;;;;;;;38.71;32.17;99895.27;1666642;85;21182;-61
2022/08/31 11:26:34;;;;;;;5.40;4.08;;;;;;;38.56;32.46;99896.36;1666427;86;20946;-56
2022/08/31 11:29:25;;;;;;;5.50;4.90;;;;;;;37.96;32.51;99899.67;1666319;86;21435;-57
2022/08/31 11:31:54;;;;;;;5.90;4.22;;;;;;;37.34;33.39;99899.42;1651980;86;21241;-64
2022/08/31 11:34:27;;;;;;;5.90;3.95;;;;;;;36.76;34.46;99891.74;1665606;85;21073;-57
2022/08/31 11:36:59;;;;;;;7.85;4.95;;;;;;;36.25;35.24;99890.23;1651547;86;21227;-56
2022/08/31 11:39:37;;;;;;;5.75;4.62;;;;;;;35.77;36.00;99889.84;1666168;85;21643;-56
2022/08/31 11:42:31;;;;;;;5.50;4.58;;;;;;;35.26;37.04;99883.86;1665599;86;21022;-57
2022/08/31 11:45:08;;;;;;;6.28;4.42;;;;;;;34.81;38.43;99886.61;1665880;85;21019;-55
2022/08/31 11:47:41;;;;;;;5.67;4.30;;;;;;;34.52;38.57;99881.96;1639135;86;21097;-56
2022/08/31 11:50:12;;;;;;;7.15;4.40;;;;;;;34.21;39.23;99881.97;1651059;86;21210;-56
2022/08/31 11:52:43;;;;;;;6.90;4.70;;;;;;;33.96;40.04;99894.31;1661360;86;20990;-57
2022/08/31 11:55:27;;;;;;;5.25;4.50;;;;;;;33.76;40.78;99891.31;1665392;86;20938;-56
2022/08/31 11:58:10;;;;;;;6.33;4.58;;;;;;;33.48;41.52;99897.53;1665966;86;21033;-55
2022/08/31 12:00:59;;;;;;;8.75;5.70;;;;;;;33.38;42.54;99898.02;1665563;86;20999;-65